sensor_id;sensor_type;location;lat;lon;timestamp;temperature;humidity
506;DHT22;551;48.524;9.056;2023-04-07T00:01:33;9.30;1.00
506;DHT22;551;48.524;9.056;2023-04-07T00:03:59;9.20;1.00
506;DHT22;551;48.524;9.056;2023-04-07T00:06:24;9.20;1.00
506;DHT22;551;48.524;9.056;2023-04-07T00:08:51;9.10;1.00
506;DHT22;551;48.524;9.056;2023-04-07T00:11:17;9.20;1.00
506;DHT22;551;48.524;9.056;2023-04-07T00:13:42;9.20;1.00
506;DHT22;551;48.524;9.056;2023-04-07T00:16:08;9.10;1.00
506;DHT22;551;48.524;9.056;2023-04-07T00:18:35;9.10;1.00
506;DHT22;551;48.524;9.056;2023-04-07T00:21:00;9.00;1.00
506;DHT22;551;48.524;9.056;2023-04-07T00:23:26;8.90;1.00
506;DHT22;551;48.524;9.056;2023-04-07T00:25:51;8.90;1.00
506;DHT22;551;48.524;9.056;2023-04-07T00:28:17;9.00;1.00
506;DHT22;551;48.524;9.056;2023-04-07T00:30:42;9.00;1.00
506;DHT22;551;48.524;9.056;2023-04-07T00:33:08;9.00;1.00
506;DHT22;551;48.524;9.056;2023-04-07T00:35:33;9.00;1.00
506;DHT22;551;48.524;9.056;2023-04-07T00:37:59;9.00;1.00
506;DHT22;551;48.524;9.056;2023-04-07T00:40:24;8.90;1.00
506;DHT22;551;48.524;9.056;2023-04-07T00:42:51;8.80;1.00
506;DHT22;551;48.524;9.056;2023-04-07T00:45:16;8.80;1.00
506;DHT22;551;48.524;9.056;2023-04-07T00:47:42;8.80;1.00
506;DHT22;551;48.524;9.056;2023-04-07T00:50:08;8.80;1.00
506;DHT22;551;48.524;9.056;2023-04-07T00:52:34;8.80;1.00
506;DHT22;551;48.524;9.056;2023-04-07T00:55:00;8.80;1.00
506;DHT22;551;48.524;9.056;2023-04-07T00:57:26;8.70;1.00
506;DHT22;551;48.524;9.056;2023-04-07T00:59:52;8.70;1.00
506;DHT22;551;48.524;9.056;2023-04-07T01:02:35;8.70;1.00
506;DHT22;551;48.524;9.056;2023-04-07T01:05:22;8.60;1.00
506;DHT22;551;48.524;9.056;2023-04-07T01:07:57;8.60;1.00
506;DHT22;551;48.524;9.056;2023-04-07T01:10:52;8.50;1.00
506;DHT22;551;48.524;9.056;2023-04-07T01:13:30;8.50;1.00
506;DHT22;551;48.524;9.056;2023-04-07T01:15:58;8.50;1.00
506;DHT22;551;48.524;9.056;2023-04-07T01:18:30;8.50;1.00
506;DHT22;551;48.524;9.056;2023-04-07T01:21:10;8.40;1.00
506;DHT22;551;48.524;9.056;2023-04-07T01:26:41;8.40;1.00
506;DHT22;551;48.524;9.056;2023-04-07T01:31:42;8.40;1.00
506;DHT22;551;48.524;9.056;2023-04-07T01:34:13;8.30;1.00
506;DHT22;551;48.524;9.056;2023-04-07T01:36:40;8.30;1.00
506;DHT22;551;48.524;9.056;2023-04-07T01:39:06;8.30;1.00
506;DHT22;551;48.524;9.056;2023-04-07T01:41:34;8.30;1.00
506;DHT22;551;48.524;9.056;2023-04-07T01:44:00;8.30;1.00
506;DHT22;551;48.524;9.056;2023-04-07T01:46:26;8.30;1.00
506;DHT22;551;48.524;9.056;2023-04-07T01:48:52;8.30;1.00
506;DHT22;551;48.524;9.056;2023-04-07T01:51:19;8.30;1.00
506;DHT22;551;48.524;9.056;2023-04-07T01:53:46;8.30;1.00
506;DHT22;551;48.524;9.056;2023-04-07T01:56:14;8.30;1.00
506;DHT22;551;48.524;9.056;2023-04-07T01:58:41;8.20;1.00
506;DHT22;551;48.524;9.056;2023-04-07T02:01:06;8.20;1.00
506;DHT22;551;48.524;9.056;2023-04-07T02:04:01;8.30;1.00
506;DHT22;551;48.524;9.056;2023-04-07T02:06:36;8.20;1.00
506;DHT22;551;48.524;9.056;2023-04-07T02:09:05;8.10;1.00
506;DHT22;551;48.524;9.056;2023-04-07T02:11:33;8.10;1.00
506;DHT22;551;48.524;9.056;2023-04-07T02:14:01;8.10;1.00
506;DHT22;551;48.524;9.056;2023-04-07T02:16:30;8.20;1.00
506;DHT22;551;48.524;9.056;2023-04-07T02:18:56;8.20;1.00
506;DHT22;551;48.524;9.056;2023-04-07T02:21:23;8.30;1.00
506;DHT22;551;48.524;9.056;2023-04-07T02:23:50;8.30;1.00
506;DHT22;551;48.524;9.056;2023-04-07T02:26:15;8.30;1.00
506;DHT22;551;48.524;9.056;2023-04-07T02:28:41;8.30;1.00
506;DHT22;551;48.524;9.056;2023-04-07T02:31:07;8.30;1.00
506;DHT22;551;48.524;9.056;2023-04-07T02:33:32;8.30;1.00
506;DHT22;551;48.524;9.056;2023-04-07T02:35:58;8.30;1.00
506;DHT22;551;48.524;9.056;2023-04-07T02:38:23;8.30;1.00
506;DHT22;551;48.524;9.056;2023-04-07T02:40:49;8.40;1.00
506;DHT22;551;48.524;9.056;2023-04-07T02:43:14;8.40;1.00
506;DHT22;551;48.524;9.056;2023-04-07T02:45:42;8.30;1.00
506;DHT22;551;48.524;9.056;2023-04-07T02:48:09;8.30;1.00
506;DHT22;551;48.524;9.056;2023-04-07T02:50:34;8.30;1.00
506;DHT22;551;48.524;9.056;2023-04-07T02:53:00;8.30;1.00
506;DHT22;551;48.524;9.056;2023-04-07T02:55:25;8.20;1.00
506;DHT22;551;48.524;9.056;2023-04-07T02:57:51;8.20;1.00
506;DHT22;551;48.524;9.056;2023-04-07T03:00:16;8.20;1.00
506;DHT22;551;48.524;9.056;2023-04-07T03:02:42;8.20;1.00
506;DHT22;551;48.524;9.056;2023-04-07T03:05:08;8.20;1.00
506;DHT22;551;48.524;9.056;2023-04-07T03:07:33;8.20;1.00
506;DHT22;551;48.524;9.056;2023-04-07T03:09:59;8.20;1.00
506;DHT22;551;48.524;9.056;2023-04-07T03:12:24;8.20;1.00
506;DHT22;551;48.524;9.056;2023-04-07T03:14:50;8.20;1.00
506;DHT22;551;48.524;9.056;2023-04-07T03:17:15;8.10;1.00
506;DHT22;551;48.524;9.056;2023-04-07T03:19:41;8.10;1.00
506;DHT22;551;48.524;9.056;2023-04-07T03:22:06;8.10;1.00
506;DHT22;551;48.524;9.056;2023-04-07T03:24:32;8.10;1.00
506;DHT22;551;48.524;9.056;2023-04-07T03:26:57;8.10;1.00
506;DHT22;551;48.524;9.056;2023-04-07T03:29:23;8.10;1.00
506;DHT22;551;48.524;9.056;2023-04-07T03:31:48;8.10;1.00
506;DHT22;551;48.524;9.056;2023-04-07T03:34:14;8.10;1.00
506;DHT22;551;48.524;9.056;2023-04-07T03:36:40;8.10;1.00
506;DHT22;551;48.524;9.056;2023-04-07T03:39:05;8.00;1.00
506;DHT22;551;48.524;9.056;2023-04-07T03:41:31;8.10;1.00
506;DHT22;551;48.524;9.056;2023-04-07T03:43:56;8.00;1.00
506;DHT22;551;48.524;9.056;2023-04-07T03:46:22;8.00;1.00
506;DHT22;551;48.524;9.056;2023-04-07T03:48:48;8.00;1.00
506;DHT22;551;48.524;9.056;2023-04-07T03:51:13;8.00;1.00
506;DHT22;551;48.524;9.056;2023-04-07T03:53:39;7.90;1.00
506;DHT22;551;48.524;9.056;2023-04-07T03:56:05;7.90;1.00
506;DHT22;551;48.524;9.056;2023-04-07T03:58:30;8.00;1.00
506;DHT22;551;48.524;9.056;2023-04-07T04:00:56;7.90;1.00
506;DHT22;551;48.524;9.056;2023-04-07T04:03:21;7.90;1.00
506;DHT22;551;48.524;9.056;2023-04-07T04:05:47;7.90;1.00
506;DHT22;551;48.524;9.056;2023-04-07T04:08:12;7.90;1.00
506;DHT22;551;48.524;9.056;2023-04-07T04:10:39;7.90;1.00
506;DHT22;551;48.524;9.056;2023-04-07T04:13:05;7.90;1.00
506;DHT22;551;48.524;9.056;2023-04-07T04:15:32;8.00;1.00
506;DHT22;551;48.524;9.056;2023-04-07T04:17:57;8.00;1.00
506;DHT22;551;48.524;9.056;2023-04-07T04:20:23;7.90;1.00
506;DHT22;551;48.524;9.056;2023-04-07T04:22:48;7.90;1.00
506;DHT22;551;48.524;9.056;2023-04-07T04:25:15;7.90;1.00
506;DHT22;551;48.524;9.056;2023-04-07T04:27:44;7.90;1.00
506;DHT22;551;48.524;9.056;2023-04-07T04:30:09;8.00;1.00
506;DHT22;551;48.524;9.056;2023-04-07T04:32:35;8.00;1.00
506;DHT22;551;48.524;9.056;2023-04-07T04:35:00;8.00;1.00
506;DHT22;551;48.524;9.056;2023-04-07T04:37:27;8.00;1.00
506;DHT22;551;48.524;9.056;2023-04-07T04:39:52;8.00;1.00
506;DHT22;551;48.524;9.056;2023-04-07T04:42:18;8.00;1.00
506;DHT22;551;48.524;9.056;2023-04-07T04:44:43;8.00;1.00
506;DHT22;551;48.524;9.056;2023-04-07T04:47:09;8.00;1.00
506;DHT22;551;48.524;9.056;2023-04-07T04:49:34;8.00;1.00
506;DHT22;551;48.524;9.056;2023-04-07T04:52:00;8.00;1.00
506;DHT22;551;48.524;9.056;2023-04-07T04:54:25;8.00;1.00
506;DHT22;551;48.524;9.056;2023-04-07T04:56:51;7.90;1.00
506;DHT22;551;48.524;9.056;2023-04-07T04:59:17;7.90;1.00
506;DHT22;551;48.524;9.056;2023-04-07T05:01:42;7.80;1.00
506;DHT22;551;48.524;9.056;2023-04-07T05:04:07;7.80;1.00
506;DHT22;551;48.524;9.056;2023-04-07T05:06:34;7.80;1.00
506;DHT22;551;48.524;9.056;2023-04-07T05:09:00;7.80;1.00
506;DHT22;551;48.524;9.056;2023-04-07T05:11:25;7.70;1.00
506;DHT22;551;48.524;9.056;2023-04-07T05:13:51;7.80;1.00
506;DHT22;551;48.524;9.056;2023-04-07T05:16:17;7.70;1.00
506;DHT22;551;48.524;9.056;2023-04-07T05:18:42;7.60;1.00
506;DHT22;551;48.524;9.056;2023-04-07T05:21:08;7.70;1.00
506;DHT22;551;48.524;9.056;2023-04-07T05:23:34;7.70;1.00
506;DHT22;551;48.524;9.056;2023-04-07T05:26:00;7.60;1.00
506;DHT22;551;48.524;9.056;2023-04-07T05:28:26;7.60;1.00
506;DHT22;551;48.524;9.056;2023-04-07T05:30:51;7.70;1.00
506;DHT22;551;48.524;9.056;2023-04-07T05:33:17;7.70;1.00
506;DHT22;551;48.524;9.056;2023-04-07T05:35:46;7.70;1.00
506;DHT22;551;48.524;9.056;2023-04-07T05:38:12;7.60;1.00
506;DHT22;551;48.524;9.056;2023-04-07T05:40:38;7.60;1.00
506;DHT22;551;48.524;9.056;2023-04-07T05:43:04;7.70;1.00
506;DHT22;551;48.524;9.056;2023-04-07T05:45:29;7.70;1.00
506;DHT22;551;48.524;9.056;2023-04-07T05:47:55;7.80;1.00
506;DHT22;551;48.524;9.056;2023-04-07T05:50:21;7.80;1.00
506;DHT22;551;48.524;9.056;2023-04-07T05:52:46;7.90;1.00
506;DHT22;551;48.524;9.056;2023-04-07T05:55:12;7.90;1.00
506;DHT22;551;48.524;9.056;2023-04-07T05:57:37;7.90;1.00
506;DHT22;551;48.524;9.056;2023-04-07T06:00:03;8.00;1.00
506;DHT22;551;48.524;9.056;2023-04-07T06:02:29;8.10;1.00
506;DHT22;551;48.524;9.056;2023-04-07T06:04:55;8.20;1.00
506;DHT22;551;48.524;9.056;2023-04-07T06:07:20;8.20;1.00
506;DHT22;551;48.524;9.056;2023-04-07T06:09:46;8.30;1.00
506;DHT22;551;48.524;9.056;2023-04-07T06:12:11;8.40;1.00
506;DHT22;551;48.524;9.056;2023-04-07T06:14:38;8.50;1.00
506;DHT22;551;48.524;9.056;2023-04-07T06:17:03;8.60;1.00
506;DHT22;551;48.524;9.056;2023-04-07T06:19:29;8.60;1.00
506;DHT22;551;48.524;9.056;2023-04-07T06:21:54;8.60;1.00
506;DHT22;551;48.524;9.056;2023-04-07T06:24:20;8.70;1.00
506;DHT22;551;48.524;9.056;2023-04-07T06:26:50;8.80;1.00
506;DHT22;551;48.524;9.056;2023-04-07T06:29:16;8.90;1.00
506;DHT22;551;48.524;9.056;2023-04-07T06:31:41;8.90;1.00
506;DHT22;551;48.524;9.056;2023-04-07T06:34:07;9.10;1.00
506;DHT22;551;48.524;9.056;2023-04-07T06:36:33;9.20;1.00
506;DHT22;551;48.524;9.056;2023-04-07T06:38:59;9.30;1.00
506;DHT22;551;48.524;9.056;2023-04-07T06:41:24;9.60;1.00
506;DHT22;551;48.524;9.056;2023-04-07T06:43:50;9.80;1.00
506;DHT22;551;48.524;9.056;2023-04-07T06:46:16;9.90;1.00
506;DHT22;551;48.524;9.056;2023-04-07T06:48:42;10.10;1.00
506;DHT22;551;48.524;9.056;2023-04-07T06:51:07;10.50;1.00
506;DHT22;551;48.524;9.056;2023-04-07T06:53:33;10.60;1.00
506;DHT22;551;48.524;9.056;2023-04-07T06:56:02;10.70;1.00
506;DHT22;551;48.524;9.056;2023-04-07T06:58:28;10.90;1.00
506;DHT22;551;48.524;9.056;2023-04-07T07:00:53;11.10;1.00
506;DHT22;551;48.524;9.056;2023-04-07T07:03:20;11.20;1.00
506;DHT22;551;48.524;9.056;2023-04-07T07:05:45;11.10;1.00
506;DHT22;551;48.524;9.056;2023-04-07T07:08:11;10.90;1.00
506;DHT22;551;48.524;9.056;2023-04-07T07:10:36;10.80;1.00
506;DHT22;551;48.524;9.056;2023-04-07T07:13:02;10.70;1.00
506;DHT22;551;48.524;9.056;2023-04-07T07:15:27;10.70;1.00
506;DHT22;551;48.524;9.056;2023-04-07T07:17:53;10.90;1.00
506;DHT22;551;48.524;9.056;2023-04-07T07:20:18;11.00;1.00
506;DHT22;551;48.524;9.056;2023-04-07T07:22:44;11.20;1.00
506;DHT22;551;48.524;9.056;2023-04-07T07:25:09;11.50;1.00
506;DHT22;551;48.524;9.056;2023-04-07T07:27:35;12.20;1.00
506;DHT22;551;48.524;9.056;2023-04-07T07:30:00;12.80;1.00
506;DHT22;551;48.524;9.056;2023-04-07T07:32:26;13.60;1.00
506;DHT22;551;48.524;9.056;2023-04-07T07:34:51;13.80;1.00
506;DHT22;551;48.524;9.056;2023-04-07T07:37:17;14.10;1.00
506;DHT22;551;48.524;9.056;2023-04-07T07:39:42;14.40;1.00
506;DHT22;551;48.524;9.056;2023-04-07T07:42:08;14.80;1.00
506;DHT22;551;48.524;9.056;2023-04-07T07:44:33;15.50;1.00
506;DHT22;551;48.524;9.056;2023-04-07T07:46:59;15.80;1.00
506;DHT22;551;48.524;9.056;2023-04-07T07:49:25;15.60;1.00
506;DHT22;551;48.524;9.056;2023-04-07T07:51:51;15.80;1.00
506;DHT22;551;48.524;9.056;2023-04-07T07:54:17;16.50;1.00
506;DHT22;551;48.524;9.056;2023-04-07T07:56:42;17.60;1.00
506;DHT22;551;48.524;9.056;2023-04-07T07:59:08;18.40;1.00
506;DHT22;551;48.524;9.056;2023-04-07T08:01:33;19.70;1.00
506;DHT22;551;48.524;9.056;2023-04-07T08:04:00;21.90;1.00
506;DHT22;551;48.524;9.056;2023-04-07T08:06:26;24.20;1.00
506;DHT22;551;48.524;9.056;2023-04-07T08:08:53;27.00;1.00
506;DHT22;551;48.524;9.056;2023-04-07T08:11:18;27.20;1.00
506;DHT22;551;48.524;9.056;2023-04-07T08:13:45;27.60;1.00
506;DHT22;551;48.524;9.056;2023-04-07T08:16:11;28.00;1.00
506;DHT22;551;48.524;9.056;2023-04-07T08:18:36;27.80;1.00
506;DHT22;551;48.524;9.056;2023-04-07T08:21:05;28.00;1.00
506;DHT22;551;48.524;9.056;2023-04-07T08:23:30;29.10;1.00
506;DHT22;551;48.524;9.056;2023-04-07T08:25:56;29.00;1.00
506;DHT22;551;48.524;9.056;2023-04-07T08:28:24;30.10;1.00
506;DHT22;551;48.524;9.056;2023-04-07T08:30:50;30.80;1.00
506;DHT22;551;48.524;9.056;2023-04-07T08:33:15;31.30;1.00
506;DHT22;551;48.524;9.056;2023-04-07T08:35:41;32.00;1.00
506;DHT22;551;48.524;9.056;2023-04-07T08:38:06;33.20;1.00
506;DHT22;551;48.524;9.056;2023-04-07T08:40:33;33.30;1.00
506;DHT22;551;48.524;9.056;2023-04-07T08:43:00;33.20;1.00
506;DHT22;551;48.524;9.056;2023-04-07T08:45:29;31.50;1.00
506;DHT22;551;48.524;9.056;2023-04-07T08:47:56;30.10;1.00
506;DHT22;551;48.524;9.056;2023-04-07T08:50:25;28.80;1.00
506;DHT22;551;48.524;9.056;2023-04-07T08:52:56;27.20;1.00
506;DHT22;551;48.524;9.056;2023-04-07T08:55:24;26.30;1.00
506;DHT22;551;48.524;9.056;2023-04-07T08:57:50;25.20;1.00
506;DHT22;551;48.524;9.056;2023-04-07T09:00:17;24.50;1.00
506;DHT22;551;48.524;9.056;2023-04-07T09:02:43;24.30;1.00
506;DHT22;551;48.524;9.056;2023-04-07T09:05:10;24.40;1.00
506;DHT22;551;48.524;9.056;2023-04-07T09:07:37;25.70;1.00
506;DHT22;551;48.524;9.056;2023-04-07T09:10:05;27.00;1.00
506;DHT22;551;48.524;9.056;2023-04-07T09:12:31;28.00;1.00
506;DHT22;551;48.524;9.056;2023-04-07T09:14:57;28.90;1.00
506;DHT22;551;48.524;9.056;2023-04-07T09:17:24;29.10;1.00
506;DHT22;551;48.524;9.056;2023-04-07T09:19:52;28.90;1.00
506;DHT22;551;48.524;9.056;2023-04-07T09:22:37;28.30;1.00
506;DHT22;551;48.524;9.056;2023-04-07T09:25:20;28.00;1.00
506;DHT22;551;48.524;9.056;2023-04-07T09:28:00;28.60;1.00
506;DHT22;551;48.524;9.056;2023-04-07T09:30:27;28.60;1.00
506;DHT22;551;48.524;9.056;2023-04-07T09:32:53;29.20;1.00
506;DHT22;551;48.524;9.056;2023-04-07T09:35:18;30.30;1.00
506;DHT22;551;48.524;9.056;2023-04-07T09:38:01;31.10;1.00
506;DHT22;551;48.524;9.056;2023-04-07T09:40:27;31.30;1.00
506;DHT22;551;48.524;9.056;2023-04-07T09:42:53;30.70;1.00
506;DHT22;551;48.524;9.056;2023-04-07T09:45:29;32.00;1.00
506;DHT22;551;48.524;9.056;2023-04-07T09:47:56;31.30;1.00
506;DHT22;551;48.524;9.056;2023-04-07T09:50:39;31.40;1.00
506;DHT22;551;48.524;9.056;2023-04-07T09:53:05;31.70;1.00
506;DHT22;551;48.524;9.056;2023-04-07T09:55:32;32.50;1.00
506;DHT22;551;48.524;9.056;2023-04-07T09:57:58;33.00;1.00
506;DHT22;551;48.524;9.056;2023-04-07T10:00:24;32.80;1.00
506;DHT22;551;48.524;9.056;2023-04-07T10:02:50;31.90;1.00
506;DHT22;551;48.524;9.056;2023-04-07T10:05:17;30.20;1.00
506;DHT22;551;48.524;9.056;2023-04-07T10:07:45;29.20;1.00
506;DHT22;551;48.524;9.056;2023-04-07T10:10:11;29.30;1.00
506;DHT22;551;48.524;9.056;2023-04-07T10:12:37;30.50;1.00
506;DHT22;551;48.524;9.056;2023-04-07T10:15:03;31.40;1.00
506;DHT22;551;48.524;9.056;2023-04-07T10:17:30;31.50;1.00
506;DHT22;551;48.524;9.056;2023-04-07T10:19:57;32.10;1.00
506;DHT22;551;48.524;9.056;2023-04-07T10:22:24;32.10;1.00
506;DHT22;551;48.524;9.056;2023-04-07T10:25:01;31.40;1.00
506;DHT22;551;48.524;9.056;2023-04-07T10:30:05;28.50;1.00
506;DHT22;551;48.524;9.056;2023-04-07T10:32:49;27.50;1.00
506;DHT22;551;48.524;9.056;2023-04-07T10:35:15;26.50;1.00
506;DHT22;551;48.524;9.056;2023-04-07T10:40:33;25.90;1.00
506;DHT22;551;48.524;9.056;2023-04-07T10:42:59;25.80;1.00
506;DHT22;551;48.524;9.056;2023-04-07T10:45:51;25.40;1.00
506;DHT22;551;48.524;9.056;2023-04-07T10:48:19;25.60;1.00
506;DHT22;551;48.524;9.056;2023-04-07T10:50:45;25.60;1.00
506;DHT22;551;48.524;9.056;2023-04-07T10:53:32;25.30;1.00
506;DHT22;551;48.524;9.056;2023-04-07T10:55:58;25.00;1.00
506;DHT22;551;48.524;9.056;2023-04-07T10:58:31;24.70;1.00
506;DHT22;551;48.524;9.056;2023-04-07T11:03:30;23.70;1.00
506;DHT22;551;48.524;9.056;2023-04-07T11:06:22;23.10;1.00
506;DHT22;551;48.524;9.056;2023-04-07T11:08:49;22.60;1.00
506;DHT22;551;48.524;9.056;2023-04-07T11:11:37;21.90;1.00
506;DHT22;551;48.524;9.056;2023-04-07T11:14:03;21.10;1.00
506;DHT22;551;48.524;9.056;2023-04-07T11:16:40;20.60;1.00
506;DHT22;551;48.524;9.056;2023-04-07T11:19:06;20.10;1.00
506;DHT22;551;48.524;9.056;2023-04-07T11:21:31;19.50;1.00
506;DHT22;551;48.524;9.056;2023-04-07T11:23:57;19.20;1.00
506;DHT22;551;48.524;9.056;2023-04-07T11:26:23;18.80;1.00
506;DHT22;551;48.524;9.056;2023-04-07T11:28:53;18.40;1.00
506;DHT22;551;48.524;9.056;2023-04-07T11:31:29;17.90;1.00
506;DHT22;551;48.524;9.056;2023-04-07T11:34:02;17.40;1.00
506;DHT22;551;48.524;9.056;2023-04-07T11:36:39;16.90;1.00
506;DHT22;551;48.524;9.056;2023-04-07T11:39:17;16.40;1.00
506;DHT22;551;48.524;9.056;2023-04-07T11:41:46;15.80;1.00
506;DHT22;551;48.524;9.056;2023-04-07T11:44:13;15.30;1.00
506;DHT22;551;48.524;9.056;2023-04-07T11:46:57;14.90;1.00
506;DHT22;551;48.524;9.056;2023-04-07T11:49:25;14.30;1.00
506;DHT22;551;48.524;9.056;2023-04-07T11:52:00;14.00;1.00
506;DHT22;551;48.524;9.056;2023-04-07T11:54:38;13.70;1.00
506;DHT22;551;48.524;9.056;2023-04-07T11:57:03;13.40;1.00
506;DHT22;551;48.524;9.056;2023-04-07T11:59:29;13.30;1.00
506;DHT22;551;48.524;9.056;2023-04-07T12:01:54;13.20;1.00
506;DHT22;551;48.524;9.056;2023-04-07T12:04:20;13.10;1.00
506;DHT22;551;48.524;9.056;2023-04-07T12:06:46;12.90;1.00
506;DHT22;551;48.524;9.056;2023-04-07T12:09:26;12.80;1.00
506;DHT22;551;48.524;9.056;2023-04-07T12:11:52;12.70;1.00
506;DHT22;551;48.524;9.056;2023-04-07T12:14:18;12.70;1.00
506;DHT22;551;48.524;9.056;2023-04-07T12:16:44;12.60;1.00
506;DHT22;551;48.524;9.056;2023-04-07T12:19:09;12.60;1.00
506;DHT22;551;48.524;9.056;2023-04-07T12:21:35;12.50;1.00
506;DHT22;551;48.524;9.056;2023-04-07T12:24:02;12.60;1.00
506;DHT22;551;48.524;9.056;2023-04-07T12:26:27;12.60;1.00
506;DHT22;551;48.524;9.056;2023-04-07T12:28:53;12.70;1.00
506;DHT22;551;48.524;9.056;2023-04-07T12:31:19;12.80;1.00
506;DHT22;551;48.524;9.056;2023-04-07T12:33:45;13.00;1.00
506;DHT22;551;48.524;9.056;2023-04-07T12:36:11;13.10;1.00
506;DHT22;551;48.524;9.056;2023-04-07T12:38:36;13.10;1.00
506;DHT22;551;48.524;9.056;2023-04-07T12:41:02;13.20;1.00
506;DHT22;551;48.524;9.056;2023-04-07T12:43:30;13.30;1.00
506;DHT22;551;48.524;9.056;2023-04-07T12:45:56;13.60;1.00
506;DHT22;551;48.524;9.056;2023-04-07T12:48:23;13.70;1.00
506;DHT22;551;48.524;9.056;2023-04-07T12:50:51;13.90;1.00
506;DHT22;551;48.524;9.056;2023-04-07T12:53:16;14.00;1.00
506;DHT22;551;48.524;9.056;2023-04-07T12:55:42;14.00;1.00
506;DHT22;551;48.524;9.056;2023-04-07T12:58:07;14.10;1.00
506;DHT22;551;48.524;9.056;2023-04-07T13:00:33;14.00;1.00
506;DHT22;551;48.524;9.056;2023-04-07T13:03:00;13.90;1.00
506;DHT22;551;48.524;9.056;2023-04-07T13:05:25;13.90;1.00
506;DHT22;551;48.524;9.056;2023-04-07T13:07:51;14.00;1.00
506;DHT22;551;48.524;9.056;2023-04-07T13:10:18;14.00;1.00
506;DHT22;551;48.524;9.056;2023-04-07T13:12:43;14.10;1.00
506;DHT22;551;48.524;9.056;2023-04-07T13:15:09;14.10;1.00
506;DHT22;551;48.524;9.056;2023-04-07T13:17:35;14.20;1.00
506;DHT22;551;48.524;9.056;2023-04-07T13:20:02;14.30;1.00
506;DHT22;551;48.524;9.056;2023-04-07T13:22:28;14.40;1.00
506;DHT22;551;48.524;9.056;2023-04-07T13:24:53;14.50;1.00
506;DHT22;551;48.524;9.056;2023-04-07T13:27:19;14.60;1.00
506;DHT22;551;48.524;9.056;2023-04-07T13:29:45;14.70;1.00
506;DHT22;551;48.524;9.056;2023-04-07T13:32:11;14.80;1.00
506;DHT22;551;48.524;9.056;2023-04-07T13:34:37;14.80;1.00
506;DHT22;551;48.524;9.056;2023-04-07T13:37:03;14.90;1.00
506;DHT22;551;48.524;9.056;2023-04-07T13:39:30;14.90;1.00
506;DHT22;551;48.524;9.056;2023-04-07T13:41:57;15.00;1.00
506;DHT22;551;48.524;9.056;2023-04-07T13:44:23;15.10;1.00
506;DHT22;551;48.524;9.056;2023-04-07T13:46:49;15.10;1.00
506;DHT22;551;48.524;9.056;2023-04-07T13:49:14;15.00;1.00
506;DHT22;551;48.524;9.056;2023-04-07T13:51:40;15.00;1.00
506;DHT22;551;48.524;9.056;2023-04-07T13:54:07;15.10;1.00
506;DHT22;551;48.524;9.056;2023-04-07T13:56:33;15.10;1.00
506;DHT22;551;48.524;9.056;2023-04-07T13:59:00;15.30;1.00
506;DHT22;551;48.524;9.056;2023-04-07T14:01:26;15.30;1.00
506;DHT22;551;48.524;9.056;2023-04-07T14:03:52;15.30;1.00
506;DHT22;551;48.524;9.056;2023-04-07T14:06:17;15.20;1.00
506;DHT22;551;48.524;9.056;2023-04-07T14:08:46;15.40;1.00
506;DHT22;551;48.524;9.056;2023-04-07T14:11:18;15.40;1.00
506;DHT22;551;48.524;9.056;2023-04-07T14:13:45;15.40;1.00
506;DHT22;551;48.524;9.056;2023-04-07T14:16:10;15.50;1.00
506;DHT22;551;48.524;9.056;2023-04-07T14:18:36;15.50;1.00
506;DHT22;551;48.524;9.056;2023-04-07T14:21:03;15.60;1.00
506;DHT22;551;48.524;9.056;2023-04-07T14:23:30;15.60;1.00
506;DHT22;551;48.524;9.056;2023-04-07T14:25:58;15.60;1.00
506;DHT22;551;48.524;9.056;2023-04-07T14:28:25;15.60;1.00
506;DHT22;551;48.524;9.056;2023-04-07T14:30:51;15.60;1.00
506;DHT22;551;48.524;9.056;2023-04-07T14:33:17;15.70;1.00
506;DHT22;551;48.524;9.056;2023-04-07T14:35:42;15.70;1.00
506;DHT22;551;48.524;9.056;2023-04-07T14:38:08;15.80;1.00
506;DHT22;551;48.524;9.056;2023-04-07T14:40:34;15.90;1.00
506;DHT22;551;48.524;9.056;2023-04-07T14:43:00;15.90;1.00
506;DHT22;551;48.524;9.056;2023-04-07T14:45:27;16.00;1.00
506;DHT22;551;48.524;9.056;2023-04-07T14:47:52;16.10;1.00
506;DHT22;551;48.524;9.056;2023-04-07T14:50:18;16.30;1.00
506;DHT22;551;48.524;9.056;2023-04-07T14:52:43;16.30;1.00
506;DHT22;551;48.524;9.056;2023-04-07T14:55:09;16.20;1.00
506;DHT22;551;48.524;9.056;2023-04-07T14:57:35;16.20;1.00
506;DHT22;551;48.524;9.056;2023-04-07T15:00:02;16.20;1.00
506;DHT22;551;48.524;9.056;2023-04-07T15:02:28;16.10;1.00
506;DHT22;551;48.524;9.056;2023-04-07T15:04:56;15.90;1.00
506;DHT22;551;48.524;9.056;2023-04-07T15:07:21;15.90;1.00
506;DHT22;551;48.524;9.056;2023-04-07T15:09:46;15.70;1.00
506;DHT22;551;48.524;9.056;2023-04-07T15:12:12;15.60;1.00
506;DHT22;551;48.524;9.056;2023-04-07T15:14:38;15.50;1.00
506;DHT22;551;48.524;9.056;2023-04-07T15:17:03;15.50;1.00
506;DHT22;551;48.524;9.056;2023-04-07T15:19:29;15.50;1.00
506;DHT22;551;48.524;9.056;2023-04-07T15:21:54;15.40;1.00
506;DHT22;551;48.524;9.056;2023-04-07T15:24:20;15.30;1.00
506;DHT22;551;48.524;9.056;2023-04-07T15:26:47;15.20;1.00
506;DHT22;551;48.524;9.056;2023-04-07T15:29:12;15.20;1.00
506;DHT22;551;48.524;9.056;2023-04-07T15:31:38;15.20;1.00
506;DHT22;551;48.524;9.056;2023-04-07T15:34:03;15.20;1.00
506;DHT22;551;48.524;9.056;2023-04-07T15:36:29;15.20;1.00
506;DHT22;551;48.524;9.056;2023-04-07T15:38:55;15.20;1.00
506;DHT22;551;48.524;9.056;2023-04-07T15:41:21;15.20;1.00
506;DHT22;551;48.524;9.056;2023-04-07T15:43:47;15.30;1.00
506;DHT22;551;48.524;9.056;2023-04-07T15:46:14;15.40;1.00
506;DHT22;551;48.524;9.056;2023-04-07T15:48:39;15.30;1.00
506;DHT22;551;48.524;9.056;2023-04-07T15:51:05;15.30;1.00
506;DHT22;551;48.524;9.056;2023-04-07T15:53:30;15.30;1.00
506;DHT22;551;48.524;9.056;2023-04-07T15:55:56;15.30;1.00
506;DHT22;551;48.524;9.056;2023-04-07T15:58:21;15.10;1.00
506;DHT22;551;48.524;9.056;2023-04-07T16:00:47;15.00;1.00
506;DHT22;551;48.524;9.056;2023-04-07T16:03:12;14.90;1.00
506;DHT22;551;48.524;9.056;2023-04-07T16:05:38;14.90;1.00
506;DHT22;551;48.524;9.056;2023-04-07T16:08:04;14.70;1.00
506;DHT22;551;48.524;9.056;2023-04-07T16:10:29;14.70;1.00
506;DHT22;551;48.524;9.056;2023-04-07T16:12:55;14.50;1.00
506;DHT22;551;48.524;9.056;2023-04-07T16:15:20;14.30;1.00
506;DHT22;551;48.524;9.056;2023-04-07T16:20:39;14.10;1.00
506;DHT22;551;48.524;9.056;2023-04-07T16:23:05;14.10;1.00
506;DHT22;551;48.524;9.056;2023-04-07T16:25:30;14.00;1.00
506;DHT22;551;48.524;9.056;2023-04-07T16:27:56;13.90;1.00
506;DHT22;551;48.524;9.056;2023-04-07T16:30:21;13.90;1.00
506;DHT22;551;48.524;9.056;2023-04-07T16:32:49;13.70;1.00
506;DHT22;551;48.524;9.056;2023-04-07T16:35:15;13.60;1.00
506;DHT22;551;48.524;9.056;2023-04-07T16:37:41;13.60;1.00
506;DHT22;551;48.524;9.056;2023-04-07T16:40:08;13.50;1.00
506;DHT22;551;48.524;9.056;2023-04-07T16:42:34;13.40;1.00
506;DHT22;551;48.524;9.056;2023-04-07T16:45:00;13.30;1.00
506;DHT22;551;48.524;9.056;2023-04-07T16:47:27;13.30;1.00
506;DHT22;551;48.524;9.056;2023-04-07T16:49:53;13.20;1.00
506;DHT22;551;48.524;9.056;2023-04-07T16:52:18;13.30;1.00
506;DHT22;551;48.524;9.056;2023-04-07T16:54:44;13.20;1.00
506;DHT22;551;48.524;9.056;2023-04-07T16:57:11;13.10;1.00
506;DHT22;551;48.524;9.056;2023-04-07T16:59:37;13.00;1.00
506;DHT22;551;48.524;9.056;2023-04-07T17:02:06;12.90;1.00
506;DHT22;551;48.524;9.056;2023-04-07T17:04:32;12.80;1.00
506;DHT22;551;48.524;9.056;2023-04-07T17:06:57;12.70;1.00
506;DHT22;551;48.524;9.056;2023-04-07T17:09:23;12.50;1.00
506;DHT22;551;48.524;9.056;2023-04-07T17:11:48;12.50;1.00
506;DHT22;551;48.524;9.056;2023-04-07T17:14:14;12.40;1.00